Flight Track Log - Related Links

Times and Time Zones

All times are in EDT time to prevent confusion due to time zone crossing. See the N717AN flight status page for this flight to view local times or setup timezone preferences in your user account.

Time Position Orientation Groundspeed Altitude Reporting Facility
EDT Latitude Longitude Course Direction KTS MPH feet Rate Location/Type
Sat 08:16:37 PM -23.4290 -46.4780 185° South 3 3  Level FlightAware ADS-B
Sat 08:20:52 PM -23.4300 -46.4780 180° South 7 8 234 Level FlightAware ADS-B
Sat 08:21:17 PM -23.4310 -46.4780 180° South 8 9 356 Level FlightAware ADS-B
Sat 08:22:11 PM -23.4310 -46.4790 270° West 8 9 375 Level FlightAware ADS-B
Sat 08:22:56 PM -23.4320 -46.4810 241° Southwest 8 9 424 Level FlightAware ADS-B
Sat 08:23:42 PM -23.4320 -46.4830 270° West 7 8 477 Level FlightAware ADS-B
Sat 08:24:06 PM -23.4330 -46.4840 223° Southwest 5 6 545 Level FlightAware ADS-B
Sat 08:25:16 PM -23.4340 -46.4830 137° Southeast 8 9 590 Level FlightAware ADS-B
Sat 08:25:57 PM -23.4340 -46.4820 90° East 4 5 773 Level FlightAware ADS-B
Sat 08:28:00 PM -23.2002 -46.5842 340° North  Level Estimated
Sat 08:28:06 PM -23.4340 -46.4810 340° North 48 55  Level FlightAware ADS-B
Sat 08:28:32 PM -23.4300 -46.4690 70° East 145 167 3,164 Level FlightAware ADS-B
Sat 08:29:01 PM -23.4230 -46.4410 75° East 190 219 2,900 4,255 Climbing FlightAware ADS-B
Sat 08:29:27 PM -23.4160 -46.4170 72° East 193 222 3,900 1,500 Climbing FlightAware ADS-B
Sat 08:29:57 PM -23.4060 -46.3850 71° East 238 274 4,300 947 Climbing FlightAware ADS-B
Sat 08:30:24 PM -23.4000 -46.3630 73° East 256 295 4,800 1,698 Climbing FlightAware ADS-B
Sat 08:30:50 PM -23.3910 -46.3330 72° East 267 307 5,800 2,509 Climbing FlightAware ADS-B
Sat 08:31:19 PM -23.3790 -46.2930 72° East 277 319 7,100 2,500 Climbing FlightAware ADS-B
Sat 08:31:38 PM -23.3730 -46.2750 70° East 277 319 7,800 2,318 Climbing FlightAware ADS-B
Sat 08:32:03 PM -23.3490 -46.2440 50° Northeast 291 335 8,800 2,416 Climbing FlightAware ADS-B
Sat 08:32:55 PM -23.2800 -46.2230 16° North 303 349 10,900 1,680 Climbing FlightAware ADS-B
Sat 08:33:43 PM -23.2120 -46.2050 14° North 361 415 11,600 1,341 Climbing FlightAware ADS-B
Sat 08:34:20 PM -23.1470 -46.1870 14° North 388 447 12,800 2,667 Climbing FlightAware ADS-B
Sat 08:35:04 PM -23.0490 -46.1790 North 400 460 15,200 2,753 Climbing FlightAware ADS-B
Sat 08:35:45 PM -22.9760 -46.1920 351° North 411 473 16,700 2,370 Climbing FlightAware ADS-B
Sat 08:36:25 PM -22.8960 -46.2060 351° North 419 482 18,400 2,148 Climbing FlightAware ADS-B
Sat 08:37:06 PM -22.8180 -46.2190 351° North 437 503 19,600 2,000 Climbing FlightAware ADS-B
Sat 08:37:46 PM -22.7420 -46.2320 351° North 438 504 21,100 2,198 Climbing FlightAware ADS-B
Sat 08:38:47 PM -22.6060 -46.2560 351° North 454 522 23,300 1,963 Climbing FlightAware ADS-B
Sat 08:39:33 PM -22.5110 -46.2730 351° North 458 527 24,600 1,653 Climbing FlightAware ADS-B
Sat 08:40:25 PM -22.4020 -46.2910 351° North 475 547 26,000 1,636 Climbing FlightAware ADS-B
Sat 08:41:12 PM -22.2930 -46.3090 351° North 486 559 27,300 1,586 Climbing FlightAware ADS-B
Sat 08:41:52 PM -22.2020 -46.3250 351° North 489 563 28,300 1,350 Climbing FlightAware ADS-B
Sat 08:42:32 PM -22.1100 -46.3400 351° North 507 583 29,100 1,350 Climbing FlightAware ADS-B
Sat 08:43:12 PM -22.0180 -46.3580 350° North 504 580 30,100 1,829 Climbing FlightAware ADS-B
Sat 08:43:54 PM -21.9220 -46.3760 350° North 503 579 31,600 1,953 Climbing FlightAware ADS-B
Sat 08:44:38 PM -21.8180 -46.3930 351° North 502 578 32,900 988 Climbing FlightAware ADS-B
Sat 08:45:19 PM -21.7250 -46.4080 351° North 491 565 33,000 71 Climbing FlightAware ADS-B
Sat 08:46:03 PM -21.6200 -46.4250 351° North 500 575 33,000  Level FlightAware ADS-B
Sat 08:46:44 PM -21.5300 -46.4400 351° North 492 566 33,000  Level FlightAware ADS-B
Sat 08:47:28 PM -21.4280 -46.4570 351° North 500 575 33,000  Level FlightAware ADS-B
Sat 08:48:08 PM -21.3360 -46.4720 351° North 500 575 33,000  Level FlightAware ADS-B
Sat 08:48:48 PM -21.2440 -46.4870 351° North 500 575 33,000  Level FlightAware ADS-B
Sat 08:49:33 PM -21.1420 -46.5030 352° North 491 565 33,000  Level FlightAware ADS-B
Sat 08:50:14 PM -21.0510 -46.5180 351° North 491 565 33,000  Level FlightAware ADS-B
Sat 08:50:59 PM -20.9460 -46.5350 351° North 491 565 33,000  Level FlightAware ADS-B
Sat 08:51:39 PM -20.8510 -46.5510 351° North 500 575 33,000  Level FlightAware ADS-B
Sat 08:52:23 PM -20.7500 -46.5670 352° North 502 578 33,000  Level FlightAware ADS-B
Sat 08:53:00 PM -20.6650 -46.5810 351° North 501 577 33,000  Level FlightAware ADS-B
Sat 08:53:45 PM -20.5630 -46.5980 351° North 499 574 33,000  Level FlightAware ADS-B
Sat 08:54:27 PM -20.4650 -46.6140 351° North 499 574 33,000  Level FlightAware ADS-B
Sat 08:55:11 PM -20.3650 -46.6330 350° North 500 575 33,000  Level FlightAware ADS-B
Sat 08:55:51 PM -20.2720 -46.6500 350° North 500 575 33,000  Level FlightAware ADS-B
Sat 08:56:47 PM -20.1460 -46.6730 350° North 501 577 33,000  Level FlightAware ADS-B
Sat 08:57:31 PM -20.0430 -46.6910 351° North 503 579 33,000  Level FlightAware ADS-B
Sat 08:58:11 PM -19.9510 -46.7080 350° North 503 579 33,000  Level FlightAware ADS-B
Sat 08:58:55 PM -19.8490 -46.7260 351° North 503 579 33,000  Level FlightAware ADS-B
Sat 08:59:35 PM -19.7580 -46.7430 350° North 503 579 33,000  Level FlightAware ADS-B
Sat 09:00:20 PM -19.6550 -46.7610 351° North 504 580 33,000  Level FlightAware ADS-B
Sat 09:01:01 PM -19.5590 -46.7790 350° North 505 581 33,000  Level FlightAware ADS-B
Sat 09:01:41 PM -19.4670 -46.7950 351° North 504 580 33,000  Level FlightAware ADS-B
Sat 09:02:21 PM -19.3760 -46.8120 350° North 503 579 33,000  Level FlightAware ADS-B
Sat 09:03:05 PM -19.2750 -46.8300 350° North 502 578 33,000  Level FlightAware ADS-B
Sat 09:03:49 PM -19.1740 -46.8470 351° North 501 577 33,000  Level FlightAware ADS-B
Sat 09:04:29 PM -19.0820 -46.8610 352° North 501 577 33,000  Level FlightAware ADS-B
Sat 09:05:09 PM -18.9920 -46.8750 352° North 500 575 33,000  Level FlightAware ADS-B
Sat 09:06:07 PM -18.8680 -46.8950 351° North 499 574 33,000  Level FlightAware ADS-B
Sat 09:06:44 PM -18.7970 -46.9070 351° North 499 574 33,000  Level FlightAware ADS-B
Sat 09:07:32 PM -18.7040 -46.9220 351° North 499 574 33,000  Level FlightAware ADS-B
Sat 09:08:09 PM -18.6320 -46.9340 351° North 499 574 33,000  Level FlightAware ADS-B
Sat 09:08:57 PM -18.5390 -46.9500 351° North 499 574 33,000  Level FlightAware ADS-B
Sat 09:09:33 PM -18.4690 -46.9620 351° North 499 574 33,000  Level FlightAware ADS-B
Sat 09:10:21 PM -18.3760 -46.9770 351° North 499 574 33,000  Level FlightAware ADS-B
Sat 09:10:57 PM -18.3060 -46.9890 351° North 499 574 33,000 90 Level FlightAware ADS-B
Sat 09:11:24 PM -18.1410 -46.9940 358° North 33,000 95 Level FlightAware ADS-B
Sat 09:14:00 PM -17.8304 -47.1284 338° Northwest  Level Estimated
Sat 09:15:00 PM -17.7109 -47.1800 338° Northwest  Level Estimated
Sat 09:16:00 PM -17.5914 -47.2315 338° Northwest  Level Estimated
Sat 09:17:00 PM -17.4719 -47.2830 338° Northwest  Level Estimated
Sat 09:18:00 PM -17.3523 -47.3344 338° Northwest  Level Estimated
Sat 09:19:00 PM -17.2328 -47.3857 338° Northwest  Level Estimated
Sat 09:20:00 PM -17.1132 -47.4369 338° Northwest  Level Estimated
Sat 09:21:00 PM -16.9937 -47.4881 338° Northwest  Level Estimated
Sat 09:21:28 PM -16.7870 -47.2620 338° Northwest 479 551 34,000  Level FlightAware ADS-B
Sat 09:22:08 PM -16.7080 -47.3120 329° Northwest 473 544 34,000  Level FlightAware ADS-B
Sat 09:22:53 PM -16.6240 -47.3650 329° Northwest 472 543 34,000  Level FlightAware ADS-B
Sat 09:23:33 PM -16.5460 -47.4090 332° Northwest 475 547 34,000  Level FlightAware ADS-B
Sat 09:24:18 PM -16.4610 -47.4580 331° Northwest 475 547 34,000  Level FlightAware ADS-B
Sat 09:24:58 PM -16.3830 -47.5030 331° Northwest 477 549 34,000  Level FlightAware ADS-B
Sat 09:25:38 PM -16.3050 -47.5480 331° Northwest 478 550 34,000  Level FlightAware ADS-B
Sat 09:26:23 PM -16.2180 -47.5980 331° Northwest 479 551 34,000  Level FlightAware ADS-B
Sat 09:27:03 PM -16.1400 -47.6440 330° Northwest 478 550 34,000  Level FlightAware ADS-B
Sat 09:27:44 PM -16.0630 -47.6880 331° Northwest 478 550 34,000  Level FlightAware ADS-B
Sat 09:28:29 PM -15.9760 -47.7380 331° Northwest 478 550 34,000  Level FlightAware ADS-B
Sat 09:29:08 PM -15.8980 -47.7830 331° Northwest 476 548 34,000  Level FlightAware ADS-B
Sat 09:29:48 PM -15.8220 -47.8270 331° Northwest 477 549 34,000  Level FlightAware ADS-B
Sat 09:30:33 PM -15.7350 -47.8770 331° Northwest 477 549 34,000  Level FlightAware ADS-B
Sat 09:31:13 PM -15.6580 -47.9210 331° Northwest 477 549 34,000  Level FlightAware ADS-B
Sat 09:31:58 PM -15.5700 -47.9720 331° Northwest 477 549 34,000  Level FlightAware ADS-B
Sat 09:32:38 PM -15.4920 -48.0160 331° Northwest 476 548 34,000  Level FlightAware ADS-B
Sat 09:33:20 PM -15.4160 -48.0600 331° Northwest 477 549 34,000  Level FlightAware ADS-B
Sat 09:34:03 PM -15.3310 -48.1080 331° Northwest 475 547 34,000  Level FlightAware ADS-B
Sat 09:34:43 PM -15.2570 -48.1500 331° Northwest 474 545 34,000  Level FlightAware ADS-B
Sat 09:35:20 PM -15.1870 -48.1900 331° Northwest 475 547 34,000  Level FlightAware ADS-B
Sat 09:36:02 PM -15.1000 -48.2400 331° Northwest 476 548 34,000  Level FlightAware ADS-B
Sat 09:36:47 PM -15.0130 -48.2890 331° Northwest 476 548 34,000  Level FlightAware ADS-B
Sat 09:37:27 PM -14.9350 -48.3340 331° Northwest 476 548 34,000  Level FlightAware ADS-B
Sat 09:38:07 PM -14.8570 -48.3780 331° Northwest 477 549 34,000  Level FlightAware ADS-B
Sat 09:38:53 PM -14.7720 -48.4260 331° Northwest 476 548 34,000  Level FlightAware ADS-B
Sat 09:39:28 PM -14.7040 -48.4650 331° Northwest 473 544 34,000  Level FlightAware ADS-B
Sat 09:40:08 PM -14.6320 -48.5060 331° Northwest 470 541 34,000  Level FlightAware ADS-B
Sat 09:41:08 PM -14.5110 -48.5750 331° Northwest 471 542 34,000  Level FlightAware ADS-B
Sat 09:41:48 PM -14.4320 -48.6190 332° Northwest 470 541 34,000  Level FlightAware ADS-B
Sat 09:42:44 PM -14.3410 -48.6710 331° Northwest 470 541 34,000  Level FlightAware ADS-B
Sat 09:43:32 PM -14.2630 -48.7160 331° Northwest 470 541 34,000  Level FlightAware ADS-B
Sat 09:44:08 PM -14.2050 -48.7490 331° Northwest 470 541 34,000  Level FlightAware ADS-B
Sat 09:44:56 PM -14.1270 -48.7930 331° Northwest 470 541 34,000  Level FlightAware ADS-B
Sat 09:45:32 PM -14.0690 -48.8270 330° Northwest 470 541 34,000  Level FlightAware ADS-B
Sat 09:46:21 PM -13.9900 -48.8720 331° Northwest 470 541 34,000  Level FlightAware ADS-B
Sat 09:46:57 PM -13.9320 -48.9050 331° Northwest 470 541 34,000  Level FlightAware ADS-B
Sat 09:47:45 PM -13.8540 -48.9490 331° Northwest 470 541 34,000  Level FlightAware ADS-B
Sat 09:48:21 PM -13.7960 -48.9830 330° Northwest 470 541 34,000  Level FlightAware ADS-B
Sat 09:49:10 PM -13.7170 -49.0280 331° Northwest 470 541 34,000  Level FlightAware ADS-B
Sat 09:49:48 PM -13.6550 -49.0630 331° Northwest 470 541 34,000  Level FlightAware ADS-B
Sat 09:50:25 PM -13.5950 -49.0970 331° Northwest 470 541 34,000  Level FlightAware ADS-B
Sat 09:51:14 PM -13.5160 -49.1420 331° Northwest 470 541 34,000  Level FlightAware ADS-B
Sat 09:51:51 PM -13.4560 -49.1760 331° Northwest 470 541 34,000  Level FlightAware ADS-B
Sat 09:54:00 PM -13.1979 -49.2815 338° Northwest  Level Estimated
Sat 09:55:00 PM -13.0778 -49.3305 338° Northwest  Level Estimated
Sat 09:56:00 PM -12.9577 -49.3794 338° Northwest  Level Estimated
Sat 09:56:22 PM -12.8000 -49.5350 338° Northwest 463 533 34,000  Level FlightAware ADS-B
Sat 09:57:34 PM -12.6700 -49.6090 331° Northwest 465 535 34,000  Level FlightAware ADS-B
Sat 09:58:10 PM -12.6120 -49.6410 332° Northwest 465 535 34,000  Level FlightAware ADS-B
Sat 09:58:59 PM -12.5340 -49.6860 331° Northwest 465 535 34,000  Level FlightAware ADS-B
Sat 09:59:35 PM -12.4760 -49.7190 331° Northwest 465 535 34,000  Level FlightAware ADS-B
Sat 10:00:23 PM -12.3990 -49.7620 331° Northwest 465 535 34,000  Level FlightAware ADS-B
Sat 10:01:01 PM -12.3380 -49.7970 331° Northwest 465 535 34,000  Level FlightAware ADS-B
Sat 10:02:13 PM -12.2220 -49.8570 333° Northwest 466 536 34,000  Level FlightAware ADS-B
Sat 10:03:04 PM -12.0420 -49.9570 331° Northwest 466 536 34,000  Level FlightAware ADS-B
Sat 10:04:30 PM -11.8770 -50.0480 332° Northwest 467 537 34,000  Level FlightAware ADS-B
Sat 10:05:06 PM -11.8120 -50.0840 332° Northwest 467 537 34,000  Level FlightAware ADS-B
Sat 10:05:49 PM -11.7280 -50.1300 332° Northwest 466 536 34,000  Level FlightAware ADS-B
Sat 10:06:39 PM -11.6480 -50.1750 331° Northwest 466 536 34,000  Level FlightAware ADS-B
Sat 10:07:16 PM -11.5890 -50.2090 331° Northwest 466 536 34,000  Level FlightAware ADS-B
Sat 10:07:54 PM -11.5280 -50.2430 331° Northwest 466 536 34,000  Level FlightAware ADS-B
Sat 10:08:09 PM -11.7100 -50.1400 151° Southeast 34,000  Level FlightAware ADS-B
Sat 10:08:43 PM -11.4450 -50.2860 332° Northwest 466 536 34,000  Level FlightAware ADS-B
Sat 10:09:26 PM -11.3160 -50.3580 331° Northwest 466 536 34,000  Level FlightAware ADS-B
Sat 10:10:02 PM -11.2580 -50.3900 332° Northwest 466 536 34,000  Level FlightAware ADS-B
Sat 10:10:36 PM -11.3610 -50.3320 151° Southeast 34,000  Level FlightAware ADS-B
Sat 10:11:56 PM -11.0270 -50.5160 332° Northwest 467 537 34,000  Level FlightAware ADS-B
Sat 10:12:33 PM -10.9680 -50.5490 331° Northwest 467 537 34,000  Level FlightAware ADS-B
Sat 10:13:18 PM -10.8660 -50.6040 332° Northwest 467 537 34,000  Level FlightAware ADS-B
Sat 10:13:58 PM -10.8110 -50.6350 331° Northwest 467 537 34,000  Level FlightAware ADS-B
Sat 10:14:45 PM -10.7190 -50.6840 332° Northwest 469 540 34,000  Level FlightAware ADS-B
Sat 10:15:25 PM -10.6550 -50.7210 330° Northwest 469 540 34,000  Level FlightAware ADS-B
Sat 10:16:02 PM -10.5950 -50.7540 332° Northwest 469 540 34,000  Level FlightAware ADS-B
Sat 10:16:51 PM -10.5160 -50.7990 331° Northwest 469 540 34,000  Level FlightAware ADS-B
Sat 10:17:27 PM -10.4580 -50.8320 331° Northwest 469 540 34,000  Level FlightAware ADS-B
Sat 10:18:15 PM -10.3810 -50.8750 331° Northwest 469 540 34,000  Level FlightAware ADS-B
Sat 10:20:00 PM -10.1704 -50.9574 339° North  Level Estimated
Sat 10:21:00 PM -10.0500 -51.0045 339° North  Level Estimated
Sat 10:22:00 PM -9.9297 -51.0515 339° North  Level Estimated
Sat 10:23:00 PM -9.8093 -51.0985 339° North  Level Estimated
Sat 10:24:00 PM -9.6889 -51.1454 339° North  Level Estimated
Sat 10:25:00 PM -9.5686 -51.1923 339° North  Level Estimated
Sat 10:26:00 PM -9.4482 -51.2392 339° North  Level Estimated
Sat 10:27:00 PM -9.3278 -51.2861 339° North  Level Estimated
Sat 10:28:00 PM -9.2074 -51.3329 339° North  Level Estimated
Sat 10:29:00 PM -9.0870 -51.3797 339° North  Level Estimated
Sat 10:30:00 PM -8.9666 -51.4264 339° North  Level Estimated
Sat 10:31:00 PM -8.8462 -51.4731 339° North  Level Estimated
Sat 10:32:00 PM -8.7257 -51.5198 339° North  Level Estimated
Sat 10:33:00 PM -8.6053 -51.5665 339° North  Level Estimated
Sat 10:34:00 PM -8.4849 -51.6131 339° North  Level Estimated
Sat 10:35:00 PM -8.3644 -51.6597 339° North  Level Estimated
Sat 10:36:00 PM -8.2440 -51.7063 339° North  Level Estimated
Sat 10:37:00 PM -8.1235 -51.7528 339° North  Level Estimated
Sat 10:38:00 PM -8.0031 -51.7993 339° North  Level Estimated
Sat 10:39:00 PM -7.8826 -51.8458 339° North  Level Estimated
Sat 10:40:00 PM -7.7621 -51.8923 339° North  Level Estimated
Sat 10:41:00 PM -7.6417 -51.9387 339° North  Level Estimated
Sat 10:42:00 PM -7.5212 -51.9851 339° North  Level Estimated
Sat 10:43:00 PM -7.4007 -52.0315 339° North  Level Estimated
Sat 10:44:00 PM -7.2802 -52.0779 339° North  Level Estimated
Sat 10:45:00 PM -7.1597 -52.1242 339° North  Level Estimated
Sat 10:46:00 PM -7.0392 -52.1705 339° North  Level Estimated
Sat 10:47:00 PM -6.9187 -52.2168 339° North  Level Estimated
Sat 10:48:00 PM -6.7982 -52.2630 339° North  Level Estimated
Sat 10:49:00 PM -6.6777 -52.3093 339° North  Level Estimated
Sat 10:50:00 PM -6.5572 -52.3555 339° North  Level Estimated
Sat 10:51:00 PM -6.4367 -52.4017 339° North  Level Estimated
Sat 10:52:00 PM -6.3162 -52.4478 339° North  Level Estimated
Sat 10:53:00 PM -6.1959 -52.4939 339° North  Level Estimated
Sat 10:54:00 PM -6.0756 -52.5400 339° North  Level Estimated
Sat 10:55:00 PM -5.9552 -52.5860 339° North  Level Estimated
Sat 10:56:00 PM -5.8349 -52.6320 339° North  Level Estimated
Sat 10:57:00 PM -5.7146 -52.6780 339° North  Level Estimated
Sat 10:58:00 PM -5.5943 -52.7239 339° North  Level Estimated
Sat 10:59:00 PM -5.4739 -52.7699 339° North  Level Estimated
Sat 11:00:00 PM -5.3536 -52.8158 339° North  Level Estimated
Sat 11:01:00 PM -5.2333 -52.8617 339° North  Level Estimated
Sat 11:02:00 PM -5.1129 -52.9076 339° North  Level Estimated
Sat 11:03:00 PM -4.9926 -52.9535 339° North  Level Estimated
Sat 11:04:00 PM -4.8722 -52.9993 339° North  Level Estimated
Sat 11:05:00 PM -4.7519 -53.0452 339° North  Level Estimated
Sat 11:06:00 PM -4.6313 -53.0911 339° North  Level Estimated
Sat 11:07:00 PM -4.5107 -53.1370 339° North  Level Estimated
Sat 11:08:00 PM -4.3902 -53.1828 339° North  Level Estimated
Sat 11:09:00 PM -4.2696 -53.2287 339° North  Level Estimated
Sat 11:10:00 PM -4.1490 -53.2746 339° North  Level Estimated
Sat 11:11:00 PM -4.0284 -53.3204 339° North  Level Estimated
Sat 11:12:00 PM -3.9078 -53.3662 339° North  Level Estimated
Sat 11:13:00 PM -3.7873 -53.4120 339° North  Level Estimated
Sat 11:14:00 PM -3.6667 -53.4578 339° North  Level Estimated
Sat 11:15:00 PM -3.5461 -53.5036 339° North  Level Estimated
Sat 11:16:00 PM -3.4255 -53.5494 339° North  Level Estimated
Sat 11:17:00 PM -3.3049 -53.5951 339° North  Level Estimated
Sat 11:18:00 PM -3.1843 -53.6409 339° North  Level Estimated
Sat 11:19:00 PM -3.0637 -53.6866 339° North  Level Estimated
Sat 11:20:00 PM -2.9431 -53.7323 339° North  Level Estimated
Sat 11:21:00 PM -2.8224 -53.7780 339° North  Level Estimated
Sat 11:22:00 PM -2.7018 -53.8238 339° North  Level Estimated
Sat 11:23:00 PM -2.5812 -53.8695 339° North  Level Estimated
Sat 11:24:00 PM -2.4608 -53.9151 339° North  Level Estimated
Sat 11:25:00 PM -2.3405 -53.9607 339° North  Level Estimated
Sat 11:26:00 PM -2.2201 -54.0063 339° North  Level Estimated
Sat 11:27:00 PM -2.0996 -54.0518 339° North  Level Estimated
Sat 11:28:00 PM -1.9792 -54.0974 339° North  Level Estimated
Sat 11:29:00 PM -1.8589 -54.1430 339° North  Level Estimated
Sat 11:30:00 PM -1.7385 -54.1885 339° North  Level Estimated
Sat 11:31:00 PM -1.6180 -54.2341 339° North  Level Estimated
Sat 11:32:00 PM -1.4977 -54.2797 339° North  Level Estimated
Sat 11:33:00 PM -1.3772 -54.3252 339° North  Level Estimated
Sat 11:34:00 PM -1.2568 -54.3708 339° North  Level Estimated
Sat 11:35:00 PM -1.1364 -54.4163 339° North  Level Estimated
Sat 11:36:00 PM -1.0160 -54.4618 339° North  Level Estimated
Sat 11:37:00 PM -0.8956 -54.5074 339° North  Level Estimated
Sat 11:38:00 PM -0.7752 -54.5529 339° North  Level Estimated
Sat 11:39:00 PM -0.6548 -54.5984 339° North  Level Estimated
Sat 11:40:00 PM -0.5344 -54.6439 339° North  Level Estimated
Sat 11:41:00 PM -0.4140 -54.6894 339° North  Level Estimated
Sat 11:42:00 PM -0.2936 -54.7350 339° North  Level Estimated
Sat 11:43:00 PM -0.1732 -54.7805 339° North  Level Estimated
Sat 11:44:00 PM -0.0527 -54.8260 339° North  Level Estimated
Sat 11:45:00 PM 0.0677 -54.8715 339° North  Level Estimated
Sat 11:46:00 PM 0.1881 -54.9170 339° North  Level Estimated
Sat 11:47:00 PM 0.3085 -54.9626 339° North  Level Estimated
Sat 11:48:00 PM 0.4289 -55.0081 339° North  Level Estimated
Sat 11:49:00 PM 0.5493 -55.0536 339° North  Level Estimated
Sat 11:50:00 PM 0.6697 -55.0991 339° North  Level Estimated
Sat 11:51:00 PM 0.7901 -55.1446 339° North  Level Estimated
Sat 11:52:00 PM 0.9105 -55.1902 339° North  Level Estimated
Sat 11:53:00 PM 1.0309 -55.2357 339° North  Level Estimated
Sat 11:54:00 PM 1.1514 -55.2812 339° North  Level Estimated
Sat 11:55:00 PM 1.2718 -55.3268 339° North  Level Estimated
Sat 11:56:00 PM 1.3922 -55.3723 339° North  Level Estimated
Sat 11:57:00 PM 1.5126 -55.4179 339° North  Level Estimated
Sat 11:58:00 PM 1.6330 -55.4634 339° North  Level Estimated
Sat 11:59:00 PM 1.7534 -55.5090 339° North  Level Estimated
Sun 12:00:00 AM 1.8738 -55.5545 339° North  Level Estimated
Sun 12:01:00 AM 1.9942 -55.6001 339° North  Level Estimated
Sun 12:02:00 AM 2.1146 -55.6457 339° North  Level Estimated
Sun 12:03:00 AM 2.2350 -55.6913 339° North  Level Estimated
Sun 12:04:00 AM 2.3554 -55.7369 339° North  Level Estimated
Sun 12:05:00 AM 2.4758 -55.7825 339° North  Level Estimated
Sun 12:06:00 AM 2.5961 -55.8281 339° North  Level Estimated
Sun 12:07:00 AM 2.7165 -55.8737 339° North  Level Estimated
Sun 12:08:00 AM 2.8369 -55.9193 339° North  Level Estimated
Sun 12:09:00 AM 2.9573 -55.9649 339° North  Level Estimated
Sun 12:10:00 AM 3.0777 -56.0106 339° North  Level Estimated
Sun 12:11:00 AM 3.1981 -56.0562 339° North  Level Estimated
Sun 12:12:00 AM 3.3185 -56.1019 339° North  Level Estimated
Sun 12:13:00 AM 3.4388 -56.1476 339° North  Level Estimated
Sun 12:14:00 AM 3.5592 -56.1933 339° North  Level Estimated
Sun 12:15:00 AM 3.6796 -56.2390 339° North  Level Estimated
Sun 12:16:00 AM 3.8000 -56.2847 339° North  Level Estimated
Sun 12:17:00 AM 3.9204 -56.3304 339° North  Level Estimated
Sun 12:18:00 AM 4.0407 -56.3761 339° North  Level Estimated
Sun 12:19:00 AM 4.1611 -56.4219 339° North  Level Estimated
Sun 12:20:00 AM 4.2814 -56.4677 339° North  Level Estimated
Sun 12:21:00 AM 4.4018 -56.5135 339° North  Level Estimated
Sun 12:22:00 AM 4.5222 -56.5592 339° North  Level Estimated
Sun 12:23:00 AM 4.6425 -56.6051 339° North  Level Estimated
Sun 12:24:00 AM 4.7629 -56.6509 339° North  Level Estimated
Sun 12:25:00 AM 4.8832 -56.6967 339° North  Level Estimated
Sun 12:26:00 AM 5.0036 -56.7426 339° North  Level Estimated
Sun 12:27:00 AM 5.1239 -56.7885 339° North  Level Estimated
Sun 12:28:00 AM 5.2442 -56.8344 339° North  Level Estimated
Sun 12:29:00 AM 5.3646 -56.8803 339° North  Level Estimated
Sun 12:30:00 AM 5.4836 -56.9257 339° North  Level Estimated
Sun 12:31:00 AM 5.6027 -56.9711 339° North  Level Estimated
Sun 12:32:00 AM 5.7217 -57.0166 339° North  Level Estimated
Sun 12:33:00 AM 5.8407 -57.0621 339° North  Level Estimated
Sun 12:34:00 AM 5.9597 -57.1076 339° North  Level Estimated
Sun 12:35:00 AM 6.0787 -57.1531 339° North  Level Estimated
Sun 12:36:00 AM 6.1978 -57.1987 339° North  Level Estimated
Sun 12:37:00 AM 6.3168 -57.2443 339° North  Level Estimated
Sun 12:38:00 AM 6.4358 -57.2899 339° North  Level Estimated
Sun 12:39:00 AM 6.5548 -57.3355 339° North  Level Estimated
Sun 12:40:00 AM 6.6738 -57.3811 339° North  Level Estimated
Sun 12:41:00 AM 6.7927 -57.4268 339° North  Level Estimated
Sun 12:42:00 AM 6.9117 -57.4724 339° North  Level Estimated
Sun 12:43:00 AM 7.0307 -57.5181 339° North  Level Estimated
Sun 12:44:00 AM 7.1497 -57.5639 339° North  Level Estimated
Sun 12:45:00 AM 7.2687 -57.6096 339° North  Level Estimated
Sun 12:46:00 AM 7.3876 -57.6554 339° North  Level Estimated
Sun 12:47:00 AM 7.5066 -57.7012 339° North  Level Estimated
Sun 12:48:00 AM 7.6256 -57.7470 339° North  Level Estimated
Sun 12:49:00 AM 7.7445 -57.7928 339° North  Level Estimated
Sun 12:50:00 AM 7.8635 -57.8387 339° North  Level Estimated
Sun 12:51:00 AM 7.9824 -57.8846 339° North  Level Estimated
Sun 12:52:00 AM 8.1014 -57.9305 339° North  Level Estimated
Sun 12:53:00 AM 8.2203 -57.9765 339° North  Level Estimated
Sun 12:54:00 AM 8.3392 -58.0225 339° North  Level Estimated
Sun 12:55:00 AM 8.4581 -58.0685 339° North  Level Estimated
Sun 12:56:00 AM 8.5771 -58.1145 339° North  Level Estimated
Sun 12:57:00 AM 8.6960 -58.1606 339° North  Level Estimated
Sun 12:58:00 AM 8.8149 -58.2067 339° North  Level Estimated
Sun 12:59:00 AM 8.9338 -58.2528 339° North  Level Estimated
Sun 01:00:00 AM 9.0527 -58.2990 339° North  Level Estimated
Sun 01:01:00 AM 9.1716 -58.3451 339° North  Level Estimated
Sun 01:02:00 AM 9.2905 -58.3914 339° North  Level Estimated
Sun 01:03:00 AM 9.4094 -58.4376 339° North  Level Estimated
Sun 01:04:00 AM 9.5328 -58.4857 339° North  Level Estimated
Sun 01:05:00 AM 9.6562 -58.5338 339° North  Level Estimated
Sun 01:06:00 AM 9.7797 -58.5819 339° North  Level Estimated
Sun 01:07:00 AM 9.9031 -58.6301 339° North  Level Estimated
Sun 01:08:00 AM 10.0265 -58.6783 339° North  Level Estimated
Sun 01:09:00 AM 10.1499 -58.7265 339° North  Level Estimated
Sun 01:09:42 AM 10.2090 -60.5010 339° North 514 592 34,000  Level FlightAware ADS-B
Sun 01:10:00 AM 10.2733 -58.7748 339° North  Level Estimated
Sun 01:10:44 AM 10.3240 -60.5870 324° Northwest 512 589 34,000  Level FlightAware ADS-B
Sun 01:11:17 AM 10.2800 -60.5540 144° Southeast 512 589 34,000  Level FlightAware ADS-B
Sun 01:12:01 AM 10.4670 -60.6930 324° Northwest 511 588 34,000  Level FlightAware ADS-B
Sun 01:12:45 AM 10.5450 -60.7510 324° Northwest 511 588 34,000  Level FlightAware ADS-B
Sun 01:13:28 AM 10.6460 -60.8260 324° Northwest 512 589 34,000  Level FlightAware ADS-B
Sun 01:14:08 AM 10.7220 -60.8830 324° Northwest 513 590 34,000  Level FlightAware ADS-B
Sun 01:15:07 AM 10.8260 -60.9610 324° Northwest 513 590 34,000  Level FlightAware ADS-B
Sun 01:15:49 AM 10.9130 -61.0260 324° Northwest 511 588 34,000 659 Level FlightAware ADS-B
Sun 01:16:29 AM 10.9920 -61.0840 324° Northwest 508 585 34,900 1,412 Climbing FlightAware ADS-B
Sun 01:17:14 AM 11.0610 -61.1360 324° Northwest 502 578 36,000 759 Climbing FlightAware ADS-B
Sun 01:17:56 AM 11.1470 -61.2010 323° Northwest 502 578 36,000  Level FlightAware ADS-B
Sun 01:18:34 AM 11.2110 -61.2490 324° Northwest 501 577 36,000  Level FlightAware ADS-B
Sun 01:19:14 AM 11.2940 -61.3110 324° Northwest 503 579 36,000  Level FlightAware ADS-B
Sun 01:20:00 AM 11.3840 -61.3790 323° Northwest 503 579 36,000  Level FlightAware ADS-B
Sun 01:20:43 AM 11.4650 -61.4400 324° Northwest 503 579 36,000  Level FlightAware ADS-B
Sun 01:21:23 AM 11.5280 -61.4870 324° Northwest 504 580 36,000  Level FlightAware ADS-B
Sun 01:22:24 AM 11.6480 -61.5780 323° Northwest 505 581 36,000  Level FlightAware ADS-B
Sun 01:23:00 AM 11.7050 -61.6220 323° Northwest 505 581 36,000  Level FlightAware ADS-B
Sun 01:23:48 AM 11.7810 -61.6800 323° Northwest 505 581 36,000  Level FlightAware ADS-B
Sun 01:24:24 AM 11.8380 -61.7240 323° Northwest 505 581 36,000  Level FlightAware ADS-B
Sun 01:25:22 AM 11.9760 -61.8260 324° Northwest 502 578 36,000  Level FlightAware ADS-B
Sun 01:25:58 AM 12.0600 -61.8880 324° Northwest 501 577 36,000  Level FlightAware ADS-B
Sun 01:26:48 AM 12.1520 -61.9580 323° Northwest 500 575 36,000  Level FlightAware ADS-B
Sun 01:27:28 AM 12.2260 -62.0160 323° Northwest 497 572 36,000  Level FlightAware ADS-B
Sun 01:28:23 AM 12.3010 -62.1070 310° West 494 568 36,000  Level FlightAware ADS-B
Sun 01:29:08 AM 12.3670 -62.1940 308° West 493 567 36,000  Level FlightAware ADS-B
Sun 01:29:48 AM 12.4230 -62.2680 308° West 493 567 36,000  Level FlightAware ADS-B
Sun 01:30:31 AM 12.4810 -62.3440 308° West 492 566 36,000  Level FlightAware ADS-B
Sun 01:31:25 AM 12.5520 -62.4390 307° West 490 564 36,000  Level FlightAware ADS-B
Sun 01:32:03 AM 12.6100 -62.5170 307° West 490 564 36,000  Level FlightAware ADS-B
Sun 01:32:53 AM 12.6810 -62.6130 307° West 489 563 36,000  Level FlightAware ADS-B
Sun 01:33:28 AM 12.7300 -62.6770 308° West 489 563 36,000  Level FlightAware ADS-B
Sun 01:34:13 AM 12.7920 -62.7600 307° West 490 564 36,000  Level FlightAware ADS-B
Sun 01:35:23 AM 12.8890 -62.8880 308° West 487 560 36,000  Level FlightAware ADS-B
Sun 01:36:08 AM 12.9510 -62.9700 308° West 485 558 36,000  Level FlightAware ADS-B
Sun 01:36:48 AM 13.0010 -63.0360 308° West 485 558 36,000  Level FlightAware ADS-B
Sun 01:37:43 AM 13.0790 -63.1410 307° West 486 559 36,000  Level FlightAware ADS-B
Sun 01:38:25 AM 13.1350 -63.2160 307° West 486 559 36,000  Level FlightAware ADS-B
Sun 01:39:08 AM 13.1990 -63.2920 311° West 490 564 36,000  Level FlightAware ADS-B
Sun 01:39:48 AM 13.2810 -63.3430 329° Northwest 493 567 36,000  Level FlightAware ADS-B
Sun 01:40:34 AM 13.3620 -63.3820 335° Northwest 493 567 36,000  Level FlightAware ADS-B
Sun 01:41:10 AM 13.4260 -63.4120 335° Northwest 493 567 36,000  Level FlightAware ADS-B
Sun 01:42:23 AM 13.6020 -63.4920 336° Northwest 36,000  Level FlightAware ADS-B
Sun 01:43:18 AM 13.7140 -63.5450 335° Northwest 494 568 36,000  Level FlightAware ADS-B
Sun 01:44:06 AM 13.7990 -63.5850 335° Northwest 494 568 36,000  Level FlightAware ADS-B
Sun 01:44:43 AM 13.8920 -63.6280 336° Northwest 495 570 36,000  Level FlightAware ADS-B
Sun 01:45:23 AM 13.9790 -63.6690 335° Northwest 495 570 36,000  Level FlightAware ADS-B
Sun 01:46:08 AM 14.0710 -63.7120 336° Northwest 495 570 36,000  Level FlightAware ADS-B
Sun 01:47:18 AM 14.2190 -63.7810 336° Northwest 497 572 36,000  Level FlightAware ADS-B
Sun 01:47:58 AM 14.3020 -63.8200 336° Northwest 498 573 36,000  Level FlightAware ADS-B
Sun 01:48:43 AM 14.3960 -63.8640 336° Northwest 498 573 36,000  Level FlightAware ADS-B
Sun 01:49:23 AM 14.4760 -63.9010 336° Northwest 497 572 36,000  Level FlightAware ADS-B
Sun 01:50:08 AM 14.5760 -63.9480 336° Northwest 497 572 36,000  Level FlightAware ADS-B
Sun 01:51:18 AM 14.7240 -64.0170 336° Northwest 496 571 36,000  Level FlightAware ADS-B
Sun 01:51:58 AM 14.8000 -64.0530 335° Northwest 495 570 36,000  Level FlightAware ADS-B
Sun 01:52:53 AM 14.9230 -64.1100 336° Northwest 495 570 36,000  Level FlightAware ADS-B
Sun 01:53:38 AM 15.0150 -64.1570 334° Northwest 492 566 36,000  Level FlightAware ADS-B
Sun 01:54:28 AM 15.0990 -64.2090 329° Northwest 491 565 36,000  Level FlightAware ADS-B
Sun 01:55:14 AM 15.1740 -64.2580 328° Northwest 491 565 36,000  Level FlightAware ADS-B
Sun 01:55:54 AM 15.0580 -64.1830 148° Southeast 490 564 36,000  Level FlightAware ADS-B
Sun 01:56:39 AM 15.3490 -64.3700 328° Northwest 490 564 36,000  Level FlightAware ADS-B
Sun 01:57:15 AM 15.4070 -64.4080 328° Northwest 490 564 36,000  Level FlightAware ADS-B
Sun 01:58:03 AM 15.4860 -64.4590 328° Northwest 490 564 36,000  Level FlightAware ADS-B
Sun 01:58:39 AM 15.5450 -64.4970 328° Northwest 490 564 36,000  Level FlightAware ADS-B
Sun 01:59:27 AM 15.6230 -64.5480 328° Northwest 490 564 36,000  Level FlightAware ADS-B
Sun 02:00:04 AM 15.6840 -64.5870 328° Northwest 490 564 36,000  Level FlightAware ADS-B
Sun 02:00:53 AM 15.7640 -64.6390 328° Northwest 490 564 36,000  Level FlightAware ADS-B
Sun 02:01:30 AM 15.8240 -64.6790 327° Northwest 490 564 36,000  Level FlightAware ADS-B
Sun 02:02:22 AM 16.0100 -64.7980 328° Northwest 484 557 36,000  Level FlightAware ADS-B
Sun 02:03:11 AM 16.0880 -64.8510 327° Northwest 484 557 36,000  Level FlightAware ADS-B
Sun 02:03:50 AM 16.1850 -64.9140 328° Northwest 485 558 36,000  Level FlightAware ADS-B
Sun 02:04:40 AM 16.2650 -64.9690 327° Northwest 485 558 36,000  Level FlightAware ADS-B
Sun 02:05:34 AM 16.3830 -65.0470 328° Northwest 487 560 36,000  Level FlightAware ADS-B
Sun 02:06:43 AM 16.5150 -65.1350 327° Northwest 485 558 36,000  Level FlightAware ADS-B
Sun 02:07:40 AM 16.6230 -65.2080 327° Northwest 486 559 36,000  Level FlightAware ADS-B
Sun 02:08:21 AM 16.7000 -65.2590 328° Northwest 487 560 36,000  Level FlightAware ADS-B
Sun 02:09:01 AM 16.7750 -65.3100 327° Northwest 487 560 36,000  Level FlightAware ADS-B
Sun 02:09:48 AM 16.8540 -65.3630 327° Northwest 486 559 36,000  Level FlightAware ADS-B
Sun 02:10:20 AM 16.9250 -65.4110 327° Northwest 487 560 36,000  Level FlightAware ADS-B
Sun 02:11:10 AM 17.0060 -65.4650 327° Northwest 487 560 36,000  Level FlightAware ADS-B
Sun 02:11:49 AM 17.0940 -65.5250 327° Northwest 485 558 36,000  Level FlightAware ADS-B
Sun 02:12:41 AM 17.1930 -65.5920 327° Northwest 485 558 36,000  Level FlightAware ADS-B
Sun 02:13:29 AM 17.2830 -65.6530 327° Northwest 486 559 36,000  Level FlightAware ADS-B
Sun 02:14:07 AM 17.3570 -65.7020 328° Northwest 485 558 36,000  Level FlightAware ADS-B
Sun 02:14:53 AM 17.4450 -65.7620 327° Northwest 485 558 36,000  Level FlightAware ADS-B
Sun 02:15:33 AM 17.5200 -65.8140 327° Northwest 487 560 36,000  Level FlightAware ADS-B
Sun 02:16:17 AM 17.6030 -65.8700 327° Northwest 487 560 36,000  Level FlightAware ADS-B
Sun 02:16:57 AM 17.6790 -65.9220 327° Northwest 487 560 36,000  Level FlightAware ADS-B
Sun 02:17:42 AM 17.7630 -65.9780 328° Northwest 487 560 36,000  Level FlightAware ADS-B
Sun 02:18:23 AM 17.8420 -66.0320 327° Northwest 488 562 36,000  Level FlightAware ADS-B
Sun 02:19:05 AM 17.9210 -66.0870 326° Northwest 490 564 36,000  Level FlightAware ADS-B
Sun 02:19:49 AM 18.0050 -66.1440 327° Northwest 489 563 36,000  Level FlightAware ADS-B
Sun 02:20:29 AM 18.0810 -66.1960 327° Northwest 489 563 36,000  Level FlightAware ADS-B
Sun 02:21:13 AM 18.1640 -66.2530 327° Northwest 490 564 36,000  Level FlightAware ADS-B
Sun 02:21:53 AM 18.2410 -66.3050 327° Northwest 490 564 36,000  Level FlightAware ADS-B
Sun 02:22:33 AM 18.3170 -66.3580 326° Northwest 488 562 36,000  Level FlightAware ADS-B
Sun 02:23:17 AM 18.4000 -66.4150 327° Northwest 488 562 36,000  Level FlightAware ADS-B
Sun 02:23:57 AM 18.4750 -66.4660 327° Northwest 490 564 36,000  Level FlightAware ADS-B
Sun 02:24:41 AM 18.5590 -66.5250 326° Northwest 490 564 36,000  Level FlightAware ADS-B
Sun 02:25:21 AM 18.6350 -66.5760 328° Northwest 489 563 36,000  Level FlightAware ADS-B
Sun 02:26:07 AM 18.7190 -66.6350 326° Northwest 488 562 36,000  Level FlightAware ADS-B
Sun 02:26:47 AM 18.7980 -66.6890 327° Northwest 488 562 36,000  Level FlightAware ADS-B
Sun 02:27:27 AM 18.8700 -66.7390 327° Northwest 488 562 36,000  Level FlightAware ADS-B
Sun 02:28:12 AM 18.9530 -66.7970 327° Northwest 489 563 36,000  Level FlightAware ADS-B
Sun 02:28:53 AM 19.0360 -66.8540 327° Northwest 488 562 36,000  Level FlightAware ADS-B
Sun 02:29:35 AM 19.1120 -66.9070 327° Northwest 485 558 36,000  Level FlightAware ADS-B
Sun 02:30:15 AM 19.1870 -66.9590 327° Northwest 484 557 36,000  Level FlightAware ADS-B
Sun 02:31:00 AM 19.2730 -67.0190 327° Northwest 484 557 36,000  Level FlightAware ADS-B
Sun 02:31:41 AM 19.3480 -67.0710 327° Northwest 484 557 36,000  Level FlightAware ADS-B
Sun 02:32:23 AM 19.4280 -67.1270 327° Northwest 484 557 36,000  Level FlightAware ADS-B
Sun 02:33:07 AM 19.5090 -67.1840 326° Northwest 485 558 36,000  Level FlightAware ADS-B
Sun 02:33:47 AM 19.5850 -67.2360 327° Northwest 487 560 36,000  Level FlightAware ADS-B
Sun 02:34:30 AM 19.6650 -67.2920 327° Northwest 487 560 36,000  Level FlightAware ADS-B
Sun 02:35:10 AM 19.7430 -67.3470 326° Northwest 487 560 36,000  Level FlightAware ADS-B
Sun 02:36:08 AM 19.8530 -67.4240 327° Northwest 486 559 36,000  Level FlightAware ADS-B
Sun 02:36:48 AM 19.9280 -67.4770 326° Northwest 485 558 36,000  Level FlightAware ADS-B
Sun 02:37:32 AM 20.0090 -67.5340 327° Northwest 483 556 36,000  Level FlightAware ADS-B
Sun 02:38:12 AM 20.0850 -67.5880 326° Northwest 483 556 36,000  Level FlightAware ADS-B
Sun 02:38:44 AM 20.1450 -67.6300 327° Northwest 484 557 36,000  Level FlightAware ADS-B
Sun 02:39:24 AM 20.2190 -67.6820 327° Northwest 484 557 36,000  Level FlightAware ADS-B
Sun 02:40:07 AM 20.3010 -67.7400 326° Northwest 485 558 36,000  Level FlightAware ADS-B
Sun 02:40:48 AM 20.3770 -67.7940 326° Northwest 484 557 36,000  Level FlightAware ADS-B
Sun 02:41:31 AM 20.4580 -67.8510 327° Northwest 485 558 36,000  Level FlightAware ADS-B
Sun 02:42:11 AM 20.5330 -67.9040 327° Northwest 487 560 36,000  Level FlightAware ADS-B
Sun 02:42:53 AM 20.6180 -67.9470 335° Northwest 493 567 36,000  Level FlightAware ADS-B
Sun 02:43:35 AM 20.7070 -67.9890 336° Northwest 495 570 36,000  Level FlightAware ADS-B
Sun 02:44:19 AM 20.7980 -68.0350 335° Northwest 494 568 36,000  Level FlightAware ADS-B
Sun 02:45:01 AM 20.8870 -68.0780 336° Northwest 495 570 36,000  Level FlightAware ADS-B
Sun 02:45:56 AM 20.9880 -68.1250 337° Northwest 494 568 36,000  Level FlightAware ADS-B
Sun 02:46:33 AM 21.0540 -68.1570 336° Northwest 494 568 36,000  Level FlightAware ADS-B
Sun 02:47:35 AM 21.1640 -68.2090 336° Northwest 494 568 36,000  Level FlightAware ADS-B
Sun 02:48:11 AM 21.2270 -68.2400 335° Northwest 494 568 36,000  Level FlightAware ADS-B
Sun 02:48:59 AM 21.3130 -68.2800 337° Northwest 494 568 36,000  Level FlightAware ADS-B
Sun 02:49:35 AM 21.3770 -68.3110 336° Northwest 494 568 36,000  Level FlightAware ADS-B
Sun 02:50:25 AM 21.4650 -68.3530 336° Northwest 494 568 36,000  Level FlightAware ADS-B
Sun 02:51:01 AM 21.5290 -68.3840 336° Northwest 494 568 36,000  Level FlightAware ADS-B
Sun 02:51:49 AM 21.6140 -68.4250 336° Northwest 494 568 36,000  Level FlightAware ADS-B
Sun 02:52:25 AM 21.6780 -68.4550 336° Northwest 494 568 36,000  Level FlightAware ADS-B
Sun 02:53:13 AM 21.7630 -68.4960 336° Northwest 494 568 36,000  Level FlightAware ADS-B
Sun 02:53:49 AM 21.8270 -68.5270 336° Northwest 494 568 36,000  Level FlightAware ADS-B
Sun 02:54:37 AM 21.9120 -68.5680 336° Northwest 494 568 36,000  Level FlightAware ADS-B
Sun 02:55:13 AM 21.9760 -68.5980 337° Northwest 494 568 36,000  Level FlightAware ADS-B
Sun 02:56:21 AM 22.2758 -68.7275 337° Northwest 494 568 36,000  Level Miami Center
Sun 02:57:21 AM 22.4094 -68.7708 343° North 486 559 36,000  Level Miami Center
Sun 02:58:21 AM 22.5386 -68.8097 344° North 481 554 36,000  Level Miami Center
Sun 02:59:21 AM 22.6658 -68.8492 344° North 481 554 36,000  Level Miami Center
Sun 03:00:23 AM 22.8014 -68.8925 344° North 494 568 36,000  Level Miami Center
Sun 03:01:21 AM 22.9331 -68.9361 343° North 488 562 36,000  Level Miami Center
Sun 03:02:21 AM 23.0622 -68.9756 344° North 488 562 36,000  Level Miami Center
Sun 03:03:21 AM 23.1939 -69.0214 342° North 488 562 36,000  Level Miami Center
Sun 03:04:21 AM 23.3275 -69.0631 344° North 488 562 36,000  Level Miami Center
Sun 03:05:21 AM 23.4589 -69.1069 343° North 494 568 36,000  Level Miami Center
Sun 03:06:22 AM 23.5883 -69.1489 343° North 494 568 36,000  Level Miami Center
Sun 03:07:22 AM 23.7175 -69.1886 344° North 491 565 36,000  Level Miami Center
Sun 03:08:21 AM 23.8494 -69.2372 341° North 486 559 36,000  Level Miami Center
Sun 03:09:21 AM 23.9831 -69.2836 342° North 494 568 36,000  Level Miami Center
Sun 03:10:21 AM 24.1078 -69.3169 346° North 482 555 36,000  Level Miami Center
Sun 03:11:21 AM 24.2394 -69.3636 342° North 482 555 36,000  Level Miami Center
Sun 03:12:23 AM 24.3622 -69.3994 345° North 482 555 36,000  Level Miami Center
Sun 03:13:21 AM 24.4961 -69.4483 342° North 482 555 36,000  Level Miami Center
Sun 03:14:21 AM 24.6236 -69.4908 343° North 482 555 36,000  Level Miami Center
Sun 03:15:21 AM 24.7614 -69.5375 343° North 476 548 36,000  Level Miami Center
Sun 03:16:21 AM 24.8908 -69.5800 343° North 476 548 36,000  Level Miami Center
Sun 03:17:21 AM 25.0033 -69.6214 342° North 468 539 36,000  Level Miami Center
Sun 03:18:21 AM 25.1281 -69.6531 348° North 466 536 36,000  Level Miami Center
Sun 03:18:26 AM 25.0333 -70.0667 348° North 476 548 36,000  Level New York Oceanic (ODAPS)
Sun 03:20:00 AM 25.3384 -69.7004 348° North  Level Estimated
Sun 03:25:16 AM 25.9500 -70.2667 348° North 469 540 36,000  Level New York Oceanic (ODAPS)
Sun 03:27:00 AM 26.2307 -69.9033 348° North  Level Estimated
Sun 03:28:00 AM 26.3582 -69.9325 348° North  Level Estimated
Sun 03:29:00 AM 26.4856 -69.9618 348° North  Level Estimated
Sun 03:30:00 AM 26.6130 -69.9911 348° North  Level Estimated
Sun 03:31:00 AM 26.7199 -70.4500 348° North 469 540 36,000  Level FlightAware Transoceanic
Sun 03:32:00 AM 26.8482 -70.4808 348° North 469 540 36,000  Level FlightAware Transoceanic
Sun 03:33:00 AM 26.9765 -70.5116 348° North 469 540 36,000  Level FlightAware Transoceanic
Sun 03:34:00 AM 27.1048 -70.5426 348° North 469 540 36,000  Level FlightAware Transoceanic
Sun 03:35:00 AM 27.2331 -70.5736 348° North 469 540 36,000  Level FlightAware Transoceanic
Sun 03:36:00 AM 27.3613 -70.6047 348° North 469 540 36,000  Level FlightAware Transoceanic
Sun 03:37:00 AM 27.4896 -70.6358 348° North 469 540 36,000  Level FlightAware Transoceanic
Sun 03:38:00 AM 27.6178 -70.6670 348° North 469 540 36,000  Level FlightAware Transoceanic
Sun 03:39:00 AM 27.7461 -70.6983 348° North 469 540 36,000  Level FlightAware Transoceanic
Sun 03:39:07 AM 27.7000 -70.6833 348° North 463 533 36,000  Level New York Oceanic (ODAPS)
Sun 03:40:00 AM 27.8743 -70.7297 348° North 469 540 36,000  Level FlightAware Transoceanic
Sun 03:41:00 AM 28.0026 -70.7611 348° North 469 540 36,000  Level FlightAware Transoceanic
Sun 03:42:00 AM 28.1308 -70.7926 348° North 469 540 36,000  Level FlightAware Transoceanic
Sun 03:43:00 AM 28.2590 -70.8242 348° North 469 540 36,000  Level FlightAware Transoceanic
Sun 03:44:00 AM 28.3872 -70.8559 348° North 469 540 36,000  Level FlightAware Transoceanic
Sun 03:45:00 AM 28.5001 -70.8826 348° North 463 533 36,000  Level FlightAware Transoceanic
Sun 03:46:00 AM 28.6334 -70.9161 348° North 463 533 36,000  Level FlightAware Transoceanic
Sun 03:47:00 AM 28.7667 -70.9497 348° North 463 533 36,000  Level FlightAware Transoceanic
Sun 03:48:00 AM 28.9000 -70.9833 348° North 463 533 36,000  Level FlightAware Transoceanic
Sun 03:48:47 AM 28.8500 -70.9667 344° North 463 533 36,000  Level New York Oceanic (ODAPS)
Sun 03:49:00 AM 29.0272 -71.0146 348° North 463 533 36,000  Level FlightAware Transoceanic
Sun 03:49:29 AM 28.9833 -71.0000 348° North 464 534 36,000  Level New York Oceanic (ODAPS)
Sun 03:50:00 AM 29.1545 -71.0459 348° North 463 533 36,000  Level FlightAware Transoceanic
Sun 03:51:00 AM 29.2817 -71.0773 348° North 463 533 36,000  Level FlightAware Transoceanic
Sun 03:52:00 AM 29.4089 -71.1088 348° North 463 533 36,000  Level FlightAware Transoceanic
Sun 03:53:00 AM 29.5361 -71.1404 348° North 463 533 36,000  Level FlightAware Transoceanic
Sun 03:53:00 AM 29.4333 -71.1167 348° North 465 535 36,000  Level New York Oceanic (ODAPS)
Sun 03:54:00 AM 29.6633 -71.1720 348° North 463 533 36,000  Level FlightAware Transoceanic
Sun 03:55:00 AM 29.7534 -71.1913 348° North 464 534 36,000  Level FlightAware Transoceanic
Sun 03:56:00 AM 29.8817 -71.2234 348° North 464 534 36,000  Level FlightAware Transoceanic
Sun 03:57:00 AM 30.0100 -71.2557 348° North 464 534 36,000  Level FlightAware Transoceanic
Sun 03:58:00 AM 30.1383 -71.2880 348° North 464 534 36,000  Level FlightAware Transoceanic
Sun 03:59:00 AM 30.2141 -71.3115 348° North 465 535 36,000  Level FlightAware Transoceanic
Sun 04:00:00 AM 30.3442 -71.3443 348° North 465 535 36,000  Level FlightAware Transoceanic
Sun 04:01:00 AM 30.4743 -71.3772 348° North 465 535 36,000  Level FlightAware Transoceanic
Sun 04:02:00 AM 30.6043 -71.4101 348° North 465 535 36,000  Level FlightAware Transoceanic
Sun 04:03:00 AM 30.7344 -71.4431 348° North 465 535 36,000  Level FlightAware Transoceanic
Sun 04:04:00 AM 30.8645 -71.4763 348° North 465 535 36,000  Level FlightAware Transoceanic
Sun 04:05:00 AM 30.9946 -71.5095 348° North 465 535 36,000  Level FlightAware Transoceanic
Sun 04:06:00 AM 31.1246 -71.5428 348° North 465 535 36,000  Level FlightAware Transoceanic
Sun 04:06:53 AM 31.1667 -71.5500 348° North 457 526 36,000  Level New York Oceanic (ODAPS)
Sun 04:07:00 AM 31.2546 -71.5762 348° North 465 535 36,000  Level FlightAware Transoceanic
Sun 04:08:00 AM 31.3847 -71.6097 348° North 465 535 36,000  Level FlightAware Transoceanic
Sun 04:09:00 AM 31.5147 -71.6433 348° North 465 535 36,000  Level FlightAware Transoceanic
Sun 04:10:00 AM 31.6447 -71.6769 348° North 465 535 36,000  Level FlightAware Transoceanic
Sun 04:11:00 AM 31.7747 -71.7107 348° North 465 535 36,000  Level FlightAware Transoceanic
Sun 04:12:00 AM 31.9047 -71.7446 348° North 465 535 36,000  Level FlightAware Transoceanic
Sun 04:13:00 AM 31.9353 -71.7499 347° North 457 526 36,000  Level FlightAware Transoceanic
Sun 04:14:00 AM 32.0634 -71.7836 347° North 457 526 36,000  Level FlightAware Transoceanic
Sun 04:14:06 AM 32.0500 -71.7833 348° North 463 533 36,000  Level New York Oceanic (ODAPS)
Sun 04:15:00 AM 32.1914 -71.8173 347° North 457 526 36,000  Level FlightAware Transoceanic
Sun 04:16:00 AM 32.3195 -71.8512 347° North 457 526 36,000  Level FlightAware Transoceanic
Sun 04:17:00 AM 32.4475 -71.8851 347° North 457 526 36,000  Level FlightAware Transoceanic
Sun 04:18:00 AM 32.5756 -71.9191 347° North 457 526 36,000  Level FlightAware Transoceanic
Sun 04:19:00 AM 32.7036 -71.9532 347° North 457 526 36,000  Level FlightAware Transoceanic
Sun 04:20:00 AM 32.8236 -71.9873 347° North 463 533 36,000  Level FlightAware Transoceanic
Sun 04:21:00 AM 32.9525 -72.0216 347° North 463 533 36,000  Level FlightAware Transoceanic
Sun 04:21:54 AM 33.0333 -72.0500 348° North 469 540 36,000  Level New York Oceanic (ODAPS)
Sun 04:22:00 AM 33.0814 -72.0561 347° North 463 533 36,000  Level FlightAware Transoceanic
Sun 04:23:00 AM 33.2103 -72.0906 347° North 463 533 36,000  Level FlightAware Transoceanic
Sun 04:24:00 AM 33.3391 -72.1252 347° North 463 533 36,000  Level FlightAware Transoceanic
Sun 04:25:00 AM 33.4680 -72.1600 347° North 463 533 36,000  Level FlightAware Transoceanic
Sun 04:26:00 AM 33.5968 -72.1948 347° North 463 533 36,000  Level FlightAware Transoceanic
Sun 04:27:00 AM 33.7257 -72.2298 347° North 463 533 36,000  Level FlightAware Transoceanic
Sun 04:28:00 AM 33.8476 -72.2639 348° North 469 540 36,000  Level FlightAware Transoceanic
Sun 04:29:00 AM 33.9833 -72.3000 355° North 469 540 36,000  Level FlightAware Transoceanic
Sun 04:29:25 AM 33.9833 -72.3000 355° North 475 547 36,000  Level New York Oceanic (ODAPS)
Sun 04:30:00 AM 34.1167 -72.3144 355° North 469 540 36,000  Level FlightAware Transoceanic
Sun 04:31:00 AM 34.2500 -72.3289 355° North 469 540 36,000  Level FlightAware Transoceanic
Sun 04:32:00 AM 34.3834 -72.3434 355° North 469 540 36,000  Level FlightAware Transoceanic
Sun 04:33:00 AM 34.5167 -72.3580 355° North 469 540 36,000 -59 Level FlightAware Transoceanic
Sun 04:33:42 AM 34.6097 -72.3542 355° North 485 558 35,900  Descending New York Center
Sun 04:34:00 AM 34.6500 -72.3726 355° North 469 540 36,000 102 Climbing FlightAware Transoceanic
Sun 04:34:41 AM 34.7367 -72.3744 353° North 478 550 36,000  Level New York Center
Sun 04:35:00 AM 34.7833 -72.3872 355° North 475 547 36,000 97 Level FlightAware Transoceanic
Sun 04:35:43 AM 34.8697 -72.3950 353° North 478 550 36,100 529 Climbing New York Center
Sun 04:36:42 AM 34.9967 -72.4256 349° North 478 550 36,900 850 Climbing New York Center
Sun 04:37:43 AM 35.1233 -72.4561 349° North 467 537 37,800 555 Climbing New York Center
Sun 04:38:41 AM 35.2503 -72.4869 349° North 466 536 38,000 51 Climbing New York Center
Sun 04:39:41 AM 35.3814 -72.5128 351° North 466 536 37,900 -50 Descending New York Center
Sun 04:40:41 AM 35.5103 -72.5361 352° North 466 536 37,900 49 Level New York Center
Sun 04:41:44 AM 35.6372 -72.5517 354° North 466 536 38,000 50 Climbing New York Center
Sun 04:42:41 AM 35.7644 -72.5572 358° North 466 536 38,000 -51 Level New York Center
Sun 04:43:41 AM 35.9064 -72.5581 360° North 474 545 37,900 -50 Descending New York Center
Sun 04:44:42 AM 36.0331 -72.5867 350° North 468 539 37,900 14 Level New York Center
Sun 04:50:52 AM 36.8341 -72.7920 350° North 480 552 38,000 14 Climbing FlightAware ADS-B
Sun 04:51:46 AM 36.9505 -72.8204 349° North 480 552 38,000  Level FlightAware ADS-B
Sun 04:52:25 AM 37.0367 -72.8416 349° North 476 548 38,000  Level FlightAware ADS-B
Sun 04:52:56 AM 37.1027 -72.8579 349° North 474 545 38,000  Level FlightAware ADS-B
Sun 04:53:27 AM 37.1688 -72.8741 349° North 474 545 38,000  Level FlightAware ADS-B
Sun 04:53:57 AM 37.2343 -72.8905 349° North 476 548 38,000  Level FlightAware ADS-B
Sun 04:54:28 AM 37.3009 -72.9069 349° North 476 548 38,000  Level FlightAware ADS-B
Sun 04:54:58 AM 37.3668 -72.9231 349° North 476 548 38,000  Level FlightAware ADS-B
Sun 04:55:29 AM 37.4325 -72.9394 349° North 476 548 38,000  Level FlightAware ADS-B
Sun 04:56:05 AM 37.5104 -72.9588 349° North 477 549 38,000  Level FlightAware ADS-B
Sun 04:56:37 AM 37.5793 -72.9760 349° North 477 549 38,000  Level FlightAware ADS-B
Sun 04:57:08 AM 37.6479 -72.9930 349° North 476 548 38,000  Level FlightAware ADS-B
Sun 04:57:38 AM 37.7129 -73.0093 349° North 476 548 38,000  Level FlightAware ADS-B
Sun 04:58:09 AM 37.7786 -73.0258 349° North 476 548 38,000  Level FlightAware ADS-B
Sun 04:58:39 AM 37.8446 -73.0424 349° North 475 547 38,000  Level FlightAware ADS-B
Sun 04:59:10 AM 37.9099 -73.0588 349° North 475 547 38,000  Level FlightAware ADS-B
Sun 04:59:40 AM 37.9758 -73.0755 349° North 475 547 38,000  Level FlightAware ADS-B
Sun 05:00:10 AM 38.0408 -73.0919 349° North 476 548 38,000  Level FlightAware ADS-B
Sun 05:00:44 AM 38.1140 -73.1103 349° North 476 548 38,000  Level FlightAware ADS-B
Sun 05:01:28 AM 38.2092 -73.1344 349° North 475 547 38,000 -545 Level FlightAware ADS-B
Sun 05:02:12 AM 38.3010 -73.1580 349° North 475 547 37,200 -2,118 Descending FlightAware ADS-B
Sun 05:02:53 AM 38.3890 -73.1800 349° North 477 549 35,000 -3,293 Descending FlightAware ADS-B
Sun 05:03:34 AM 38.4770 -73.2030 348° North 488 562 32,700 -2,965 Descending FlightAware ADS-B
Sun 05:04:18 AM 38.5770 -73.2280 349° North 490 564 30,800 -1,135 Descending FlightAware ADS-B
Sun 05:04:48 AM 38.5518 -73.2219 169° South 494 568 31,300 -2,300 Climbing FlightAware ADS-B
Sun 05:05:18 AM 38.7138 -73.2632 349° North 475 547 28,500 -3,255 Descending FlightAware ADS-B
Sun 05:06:22 AM 38.8470 -73.2980 348° North 462 532 26,200 -2,147 Descending FlightAware ADS-B
Sun 05:07:07 AM 38.9410 -73.3220 349° North 444 511 24,600 -2,047 Descending FlightAware ADS-B
Sun 05:07:47 AM 39.0200 -73.3430 348° North 442 509 23,300 -2,025 Descending FlightAware ADS-B
Sun 05:08:27 AM 39.1000 -73.3630 349° North 425 489 21,900 -1,950 Descending FlightAware ADS-B
Sun 05:09:07 AM 39.1780 -73.3850 348° North 414 476 20,700 -1,271 Descending FlightAware ADS-B
Sun 05:09:52 AM 39.2580 -73.4210 341° North 401 461 20,100 -918 Descending FlightAware ADS-B
Sun 05:10:32 AM 39.3250 -73.4590 336° Northwest 390 449 19,400 -1,038 Descending FlightAware ADS-B
Sun 05:11:36 AM 39.4350 -73.5230 336° Northwest 389 448 18,300 -1,327 Descending FlightAware ADS-B
Sun 05:12:16 AM 39.5000 -73.5610 336° Northwest 381 438 17,100 -1,857 Descending FlightAware ADS-B
Sun 05:13:00 AM 39.5690 -73.6000 336° Northwest 375 432 15,700 -1,857 Descending FlightAware ADS-B
Sun 05:13:40 AM 39.6330 -73.6370 336° Northwest 370 426 14,500 -1,829 Descending FlightAware ADS-B
Sun 05:14:22 AM 39.6980 -73.6750 336° Northwest 364 419 13,200 -1,857 Descending FlightAware ADS-B
Sun 05:15:04 AM 39.7620 -73.7120 336° Northwest 359 413 11,900 -1,744 Descending FlightAware ADS-B
Sun 05:15:48 AM 39.8280 -73.7500 336° Northwest 350 403 10,700 -1,143 Descending FlightAware ADS-B
Sun 05:16:28 AM 39.8890 -73.7730 344° North 334 384 10,300 -646 Descending FlightAware ADS-B
Sun 05:16:53 AM 39.9250 -73.7710 North 323 372 10,000 -400 Descending FlightAware ADS-B
Sun 05:17:13 AM 39.9540 -73.7700 North 305 351 10,000 -267 Level FlightAware ADS-B
Sun 05:17:38 AM 39.9890 -73.7670 North 291 335 9,800 -1,294 Descending FlightAware ADS-B
Sun 05:18:04 AM 40.0250 -73.7530 17° North 304 350 8,900 -2,400 Descending FlightAware ADS-B
Sun 05:18:23 AM 40.0500 -73.7400 22° Northeast 305 351 8,000 -2,609 Descending FlightAware ADS-B
Sun 05:18:50 AM 40.0860 -73.7210 22° Northeast 298 343 6,900 -2,291 Descending FlightAware ADS-B
Sun 05:19:18 AM 40.1200 -73.7030 22° Northeast 284 327 5,900 -2,133 Descending FlightAware ADS-B
Sun 05:19:35 AM 40.1405 -73.6919 22° Northeast 277 319 5,300 -2,333 Descending FlightAware ADS-B
Sun 05:20:12 AM 40.1830 -73.6690 22° Northeast 266 306 3,800 -2,308 Descending FlightAware ADS-B
Sun 05:20:40 AM 40.2150 -73.6520 22° Northeast 266 306 2,800 -1,636 Descending FlightAware ADS-B
Sun 05:21:07 AM 40.2460 -73.6380 19° North 261 300 2,300 -947 Descending FlightAware ADS-B
Sun 05:21:37 AM 40.2780 -73.6230 20° North 254 292 1,900 -667 Descending FlightAware ADS-B
Sun 05:21:52 AM 40.2970 -73.6150 18° North 255 293 1,800 -171 Descending FlightAware ADS-B
Sun 05:22:12 AM 40.3190 -73.6050 19° North 257 296 1,800  Level FlightAware ADS-B
Sun 05:22:46 AM 40.3560 -73.5890 18° North 257 296 1,800  Level FlightAware ADS-B
Sun 05:23:11 AM 40.3860 -73.5760 18° North 248 285 1,800  Level FlightAware ADS-B
Sun 05:23:44 AM 40.4210 -73.5610 18° North 248 285 1,800  Level FlightAware ADS-B
Sun 05:24:13 AM 40.4530 -73.5470 18° North 248 285 1,800  Level FlightAware ADS-B
Sun 05:24:37 AM 40.4790 -73.5350 19° North 247 284 1,800  Level FlightAware ADS-B
Sun 05:25:05 AM 40.5090 -73.5240 16° North 226 260 1,800  Level FlightAware ADS-B
Sun 05:25:35 AM 40.5370 -73.5370 341° North 211 243 1,800  Level FlightAware ADS-B
Sun 05:26:03 AM 40.5540 -73.5600 314° West 184 212 1,800  Level FlightAware ADS-B
Sun 05:26:28 AM 40.5640 -73.5830 300° West 175 201 1,800  Level FlightAware ADS-B
Sun 05:26:58 AM 40.5770 -73.6120 301° West 175 201 1,800 103 Level FlightAware ADS-B
Sun 05:27:26 AM 40.5880 -73.6360 301° West 171 197 1,900 -231 Climbing FlightAware ADS-B
Sun 05:27:50 AM 40.5970 -73.6560 301° West 149 171 1,600 -737 Descending FlightAware ADS-B
Sun 05:28:23 AM 40.6090 -73.6820 301° West 147 169 1,200 -667 Descending FlightAware ADS-B
Sun 05:28:35 AM 40.6130 -73.6910 300° West 146 168 1,100 -789 Descending FlightAware ADS-B
Sun 05:29:01 AM 40.6220 -73.7110 301° West 144 166 700 -818 Descending FlightAware ADS-B
Sun 05:29:19 AM 40.6280 -73.7240 301° West 142 163 500 -766 Descending FlightAware ADS-B
Sun 05:29:48 AM 40.6380 -73.7460 301° West 143 165 100 -828 Descending FlightAware ADS-B
Sun 05:30:17 AM 40.6470 -73.7680 298° West 142 163 -207 Descending FlightAware ADS-B
Sun 05:30:29 AM 40.6510 -73.7750 307° West 110 127  Level FlightAware ADS-B
Sun 05:30:55 AM 40.6540 -73.7820 299° West 28 32  Level FlightAware ADS-B
Sun 05:31:07 AM 40.6540 -73.7830 270° West 34 39  Level FlightAware ADS-B
Sun 05:31:37 AM 40.6530 -73.7850 237° Southwest 16 18  Level FlightAware ADS-B
Sun 05:31:52 AM 40.6530 -73.7870 270° West 17 20  Level FlightAware ADS-B
Sun 05:32:23 AM 40.6520 -73.7890 237° Southwest 22 25  Level FlightAware ADS-B

Login

Don't have an account? Register now (free) for customized features, flight alerts, and more!